Fort Lewis, WA (98433)

6:55 PM PDT on September 01, 2015 (GMT -0700)
Lake City | | Change Station
CLOSE
Current Station
Personal Weather Station
Location: Lakewood, WA
Elevation: 249 ft
Nearby Weather Stations

Elev 249 ft 47.15 °N, 122.55 °W | Updated 51 seconds ago

Overcast
Overcast
59.5 °F
Feels Like 59.5 °F
N
0.0
Wind Variable Wind from East
Gusts 0.0 mph

Today
High -- | Low -- °F
--% Chance of Precip.
Yesterday
High -- | Low -- °F
Precip. -- in
6:29 AM 7:50 PM
Waning Gibbous, 84% visible
Pressure 29.80 in
Visibility 10.0 miles
Clouds Few 300 ft
Scattered Clouds 2400 ft
Mostly Cloudy 3000 ft
Overcast 4400 ft
Dew Point 60 °F
Humidity 100%
Rainfall 0.22 in
Snow Depth Not available.
UV 0 out of 12
Pollen .50 out of 12
Air Quality Not available.
Flu Activity Not available.
SPECI KGRF 020059Z 20007KT 10SM FEW003 SCT024 BKN030 OVC044 15/14 A2980 RMK AO2A RAE58 $
Pressure 29.80 in
Visibility 10.0 miles
Clouds Few 300 ft
Scattered Clouds 2400 ft
Mostly Cloudy 3000 ft
Overcast 4400 ft
Dew Point 60 °F
Humidity 100%
Rainfall 0.22 in
Snow Depth Not available.
UV 0 out of 12
Pollen .50 out of 12
Air Quality Not available.
Flu Activity Not available.
SPECI KGRF 020059Z 20007KT 10SM FEW003 SCT024 BKN030 OVC044 15/14 A2980 RMK AO2A RAE58 $

10-Day Weather Forecast

×

Almanac

Astronomy

Sep. 01, 2015 Rise Set
Actual Time
Civil Twilight
Nautical Twilight
Astronomical Twilight
Moon
Length of Visible Light
Length of Day
Tomorrow will be .
, % of the Moon is Illuminated

Today's Extremes

State Highs State Lows

Community

WunderPhotos

Upload Photos

1,851,673 photos uploaded!

WunderBlogs® & News

Nearby

Air Quality

  Air Quality AQ Index Pollutant
Not available.

Snow Depth

Station Depth Elevation

Earthquake Activity

City Distance Mag. Time & Date
Minimum magnitude displayed is 2.5.

Coastal Water Temperatures

Place Temperature

Stations

Nearby Weather Stations

Station Location Temp. Windchill Dew Point Humidity Wind Precip. Elev Updated Type